»·PEaware :: AAL6023 KLAS-KLAX

AAL6023 :: KLAS-KLAX

FLIGHT INFORMATION

Flight Status: Arrived
Operator:
American Airlines
More flights by this operator :: More flights under this callsign
Pilot: Alfonso U. (14209)
Aircraft: BOEING 737-800
(B738)
More flights by this aircraft type
Origin: KLAS McCarran Intl
United States
Destination: KLAX Los Angeles Intl
United States
More flights between these airports :: More routes between these airports
Route: +BOACH8 RIKII SHTNR ANJLL4
File this flight plan on PilotEdge
Remarks:
Altitude:
(Current/Filed)
30,000ft
Speed:
(Current/Filed)
500kts
Departed: 01-Aug-18 11:29 AM
Arrived: 01-Aug-18 12:15 PM
Distance/Time
Traveled:
205nm/0:46
Distance/Time
To Go:
Arrived

Flight Plot

Page will automatically refresh every two minutes.

Flight plan parsing failed; only flown route is shown


Map Options




Map Legend


Flown Route
Filed Route
Departure Airport
Arrival Airport
Navaid (VOR, NDB)
Fix

Horizontal Profiles

Position Reports

Time Latitude Longitude Heading Altitude Ground
Speed
01-Aug-18 11:09 36.085355 -115.154898 92 2113ft 0kts
01-Aug-18 11:10 36.085355 -115.154898 92 2113ft 0kts
01-Aug-18 11:11 36.085355 -115.154898 92 2113ft 0kts
01-Aug-18 11:12 36.085355 -115.154898 92 2113ft 0kts
01-Aug-18 11:13 36.085355 -115.154898 92 2113ft 0kts
01-Aug-18 11:14 36.085355 -115.154898 92 2113ft 0kts
01-Aug-18 11:15 36.085355 -115.154898 92 2113ft 0kts
01-Aug-18 11:16 36.085355 -115.154898 92 2113ft 0kts
01-Aug-18 11:17 36.085355 -115.154898 92 2113ft 0kts
01-Aug-18 11:18 36.085355 -115.154898 92 2113ft 0kts
01-Aug-18 11:19 36.085355 -115.154898 92 2113ft 0kts
01-Aug-18 11:20 36.085371 -115.155409 92 2115ft 0kts
01-Aug-18 11:21 36.085371 -115.155409 92 2115ft 0kts
01-Aug-18 11:22 36.085371 -115.155399 92 2115ft 0kts
01-Aug-18 11:23 36.085371 -115.155399 92 2115ft 0kts
01-Aug-18 11:24 36.085371 -115.155399 92 2115ft 0kts
01-Aug-18 11:25 36.085371 -115.155399 92 2115ft 0kts
01-Aug-18 11:26 36.085297 -115.155347 223 2115ft 0kts
01-Aug-18 11:27 36.084962 -115.156470 238 2120ft 10kts
01-Aug-18 11:28 36.079248 -115.153615 155 2123ft 26kts
01-Aug-18 11:29 36.078492 -115.146733 95 2100ft 35kts
01-Aug-18 11:30 36.078253 -115.132199 90 2056ft 45kts
01-Aug-18 11:31 36.077493 -115.121524 132 2037ft 0kts
01-Aug-18 11:32 36.077493 -115.121524 132 2037ft 0kts
01-Aug-18 11:33 36.076459 -115.122058 272 2038ft 13kts
01-Aug-18 11:34 36.076718 -115.157672 272 2598ft 190kts
01-Aug-18 11:35 36.072568 -115.236033 244 4799ft 275kts
01-Aug-18 11:36 36.008316 -115.287619 198 7007ft 309kts
01-Aug-18 11:37 35.926463 -115.310317 182 9517ft 292kts
01-Aug-18 11:38 35.841651 -115.316947 175 12334ft 322kts
01-Aug-18 11:39 35.751269 -115.304688 174 15450ft 335kts
01-Aug-18 11:40 35.657238 -115.295946 182 18319ft 347kts
01-Aug-18 11:41 35.559676 -115.299575 183 20979ft 360kts
01-Aug-18 11:42 35.463663 -115.331021 210 23370ft 369kts
01-Aug-18 11:43 35.393143 -115.382383 211 25127ft 378kts
01-Aug-18 11:44 35.301541 -115.449156 211 27156ft 389kts
01-Aug-18 11:45 35.234121 -115.498202 212 28492ft 397kts
01-Aug-18 11:46 35.209768 -115.515905 212 28945ft 399kts
01-Aug-18 11:47 35.115480 -115.588660 224 30073ft 412kts
01-Aug-18 11:48 35.034091 -115.692153 226 30110ft 440kts
01-Aug-18 11:49 34.948781 -115.801414 226 30100ft 448kts
01-Aug-18 11:50 34.875130 -115.895264 225 30109ft 456kts
01-Aug-18 11:51 34.808278 -115.980153 225 30109ft 455kts
01-Aug-18 11:52 34.720951 -116.091204 226 30110ft 455kts
01-Aug-18 11:53 34.633825 -116.202108 226 30105ft 455kts
01-Aug-18 11:54 34.546575 -116.312783 226 30109ft 455kts
01-Aug-18 11:55 34.459181 -116.423266 226 30107ft 454kts
01-Aug-18 11:56 34.386831 -116.546554 243 30068ft 454kts
01-Aug-18 11:57 34.332376 -116.679932 243 30010ft 429kts
01-Aug-18 11:58 34.279027 -116.813052 243 26519ft 445kts
01-Aug-18 11:59 34.229122 -116.937166 242 24188ft 398kts
01-Aug-18 12:00 34.189062 -117.056889 251 20394ft 380kts
01-Aug-18 12:01 34.157359 -117.177525 250 17907ft 373kts
01-Aug-18 12:02 34.125667 -117.293882 251 15725ft 361kts
01-Aug-18 12:03 34.095333 -117.406869 252 13636ft 350kts
01-Aug-18 12:04 34.067672 -117.517254 252 12006ft 330kts
01-Aug-18 12:05 34.039909 -117.621908 252 10641ft 322kts
01-Aug-18 12:06 34.015839 -117.720807 262 9511ft 301kts
01-Aug-18 12:07 34.007229 -117.818189 263 8998ft 289kts
01-Aug-18 12:08 33.990289 -117.911789 257 8988ft 289kts
01-Aug-18 12:09 33.979035 -118.007367 259 8968ft 285kts
01-Aug-18 12:10 33.965718 -118.095309 262 7294ft 264kts
01-Aug-18 12:11 33.957101 -118.179691 263 4121ft 258kts
01-Aug-18 12:12 33.949859 -118.259692 264 2126ft 209kts
01-Aug-18 12:13 33.943868 -118.320122 263 1133ft 156kts
01-Aug-18 12:14 33.938799 -118.370115 263 347ft 146kts
01-Aug-18 12:15 33.934935 -118.410256 285 126ft 55kts
01-Aug-18 12:16 33.935446 -118.411889 293 126ft 0kts
01-Aug-18 12:17 33.936898 -118.412744 356 126ft 13kts
01-Aug-18 12:18 33.939066 -118.407666 46 126ft 11kts
01-Aug-18 12:19 33.939475 -118.407182 42 124ft 0kts
01-Aug-18 12:20 33.939475 -118.407182 42 124ft 0kts
01-Aug-18 12:21 33.939475 -118.407182 42 124ft 0kts
01-Aug-18 12:22 33.939475 -118.407182 42 124ft 0kts
01-Aug-18 12:23 33.939475 -118.407182 42 124ft 0kts
01-Aug-18 12:24 33.939475 -118.407182 42 124ft 0kts
01-Aug-18 12:25 33.939475 -118.407182 42 124ft 0kts

Navigation Log

Ident Type
Flight plan parsing failed, navigation log unavailable